Time;durP1;ratioP1;P1;durP2;ratioP2;P2;SDS_P1;SDS_P2;PMS_P1;PMS_P2;Temp;Humidity;BMP_temperature;BMP_pressure;BME280_temperature;BME280_humidity;BME280_pressure;Samples;Min_cycle;Max_cycle;Signal;HPM_P1;HPM_P2
2021/12/11 00:01:45;;;;;;;6.93;1.90;;;2.40;99.90;;;;;;4956051;28;20478;-74
2021/12/11 00:04:18;;;;;;;3.77;1.50;;;2.50;99.90;;;;;;4973233;28;20019;-74
2021/12/11 00:06:47;;;;;;;5.23;1.93;;;2.50;99.90;;;;;;4973232;28;20035;-74
2021/12/11 00:09:24;;;;;;;2.97;1.90;;;2.60;99.90;;;;;;4973004;28;20037;-74
2021/12/11 00:11:58;;;;;;;6.00;1.97;;;2.60;99.90;;;;;;4955631;28;20034;-74
2021/12/11 00:14:28;;;;;;;3.27;1.60;;;2.50;99.90;;;;;;4972226;28;20043;-74
2021/12/11 00:16:54;;;;;;;6.07;2.60;;;2.50;99.90;;;;;;4973056;28;20033;-75
2021/12/11 00:19:24;;;;;;;8.97;2.00;;;2.50;99.90;;;;;;4955422;28;20399;-75
2021/12/11 00:21:50;;;;;;;3.83;2.13;;;2.50;99.90;;;;;;4973339;28;20030;-74
2021/12/11 00:24:25;;;;;;;3.50;1.77;;;2.50;99.90;;;;;;4955335;28;20056;-74
2021/12/11 00:27:03;;;;;;;5.67;1.87;;;2.50;99.90;;;;;;4973165;28;20105;-74
2021/12/11 00:29:29;;;;;;;3.20;1.30;;;2.50;99.90;;;;;;4973352;28;20027;-75
2021/12/11 00:32:11;;;;;;;2.97;1.70;;;2.50;99.90;;;;;;4972800;28;20491;-74
2021/12/11 00:34:40;;;;;;;5.33;1.83;;;2.50;99.90;;;;;;4972372;28;20037;-74
2021/12/11 00:37:11;;;;;;;6.30;1.90;;;2.50;99.90;;;;;;4972611;28;20050;-74
2021/12/11 00:39:46;;;;;;;4.80;1.87;;;2.40;99.90;;;;;;4972558;28;20345;-74
2021/12/11 00:42:12;;;;;;;2.50;1.40;;;2.50;99.90;;;;;;4972567;28;20026;-74
2021/12/11 00:44:43;;;;;;;4.20;1.70;;;2.40;99.90;;;;;;4972923;28;20026;-74
2021/12/11 00:47:21;;;;;;;2.83;1.40;;;2.50;99.90;;;;;;4972734;28;20073;-74
2021/12/11 00:49:59;;;;;;;3.97;1.47;;;2.50;99.90;;;;;;4972706;28;20027;-74
2021/12/11 00:52:44;;;;;;;5.60;1.43;;;2.40;99.90;;;;;;4972539;28;20426;-75
2021/12/11 00:55:24;;;;;;;2.95;1.50;;;2.40;99.90;;;;;;4972619;28;20023;-74
2021/12/11 00:58:12;;;;;;;2.30;1.60;;;2.50;99.90;;;;;;4972248;28;20046;-75
2021/12/11 01:00:55;;;;;;;2.47;1.43;;;2.40;99.90;;;;;;4972415;28;20133;-74
2021/12/11 01:03:43;;;;;;;4.83;1.47;;;2.30;99.90;;;;;;4955032;28;20031;-75
2021/12/11 01:06:16;;;;;;;2.80;1.33;;;2.50;99.90;;;;;;4971936;28;20132;-74
2021/12/11 01:08:59;;;;;;;2.30;1.23;;;2.40;99.90;;;;;;4972036;28;20038;-74
2021/12/11 01:11:35;;;;;;;2.30;1.30;;;2.40;99.90;;;;;;4971589;28;20027;-76
2021/12/11 01:14:11;;;;;;;3.30;1.33;;;2.40;99.90;;;;;;4970761;28;20184;-77
2021/12/11 01:16:41;;;;;;;3.30;1.50;;;2.50;99.90;;;;;;4970689;28;20436;-77
2021/12/11 01:19:08;;;;;;;2.50;1.50;;;2.40;99.90;;;;;;4970756;28;20467;-77
2021/12/11 01:27:20;;;;;;;3.20;1.40;;;2.40;99.90;;;;;;4969909;28;20065;-77
2021/12/11 01:29:48;;;;;;;2.53;1.60;;;2.40;99.90;;;;;;4970611;28;20038;-77
2021/12/11 01:32:15;;;;;;;2.90;1.40;;;2.40;99.90;;;;;;4952864;28;20811;-77
2021/12/11 01:34:42;;;;;;;3.30;1.50;;;2.50;99.90;;;;;;4953325;28;20801;-77
2021/12/11 01:37:08;;;;;;;2.50;1.30;;;2.50;99.90;;;;;;4970578;28;20096;-77
2021/12/11 01:39:38;;;;;;;2.37;1.57;;;2.50;99.90;;;;;;4970858;28;20195;-77
2021/12/11 01:42:29;;;;;;;3.23;1.57;;;2.50;99.90;;;;;;4953200;28;20027;-77
2021/12/11 01:44:56;;;;;;;4.37;1.60;;;2.50;99.90;;;;;;4955411;28;20039;-77
2021/12/11 01:47:31;;;;;;;2.37;1.80;;;2.50;99.90;;;;;;4970586;28;20022;-77
2021/12/11 01:50:10;;;;;;;2.15;1.25;;;2.50;99.90;;;;;;4970324;28;20515;-77
2021/12/11 01:52:55;;;;;;;2.40;1.40;;;2.40;99.90;;;;;;4970648;28;20031;-77
2021/12/11 01:55:54;;;;;;;2.45;1.70;;;2.50;99.90;;;;;;4970538;28;20102;-77
2021/12/11 01:58:34;;;;;;;3.57;1.47;;;2.60;99.90;;;;;;4967055;28;20043;-77
2021/12/11 02:01:22;;;;;;;2.00;1.20;;;2.60;99.90;;;;;;4970510;28;20098;-77
2021/12/11 02:03:51;;;;;;;5.40;1.77;;;2.60;99.90;;;;;;4969828;28;20046;-77
2021/12/11 02:06:16;;;;;;;3.00;1.70;;;2.60;99.90;;;;;;4970434;28;20200;-77
2021/12/11 02:08:43;;;;;;;2.27;1.43;;;2.50;99.90;;;;;;4952917;28;20023;-77
2021/12/11 02:11:22;;;;;;;4.13;1.57;;;2.50;99.90;;;;;;4970299;28;20023;-77
2021/12/11 02:13:54;;;;;;;2.23;1.40;;;2.50;99.90;;;;;;4970113;28;20112;-77
2021/12/11 02:16:28;;;;;;;4.40;1.80;;;2.60;99.90;;;;;;4970508;28;20355;-77
2021/12/11 02:18:58;;;;;;;2.40;1.60;;;2.50;99.90;;;;;;4970133;28;20072;-77
2021/12/11 02:21:32;;;;;;;2.03;1.60;;;2.50;99.90;;;;;;4969889;28;20031;-77
2021/12/11 02:24:09;;;;;;;1.70;1.40;;;2.60;99.90;;;;;;4970704;28;20027;-77
2021/12/11 02:26:37;;;;;;;4.00;1.50;;;2.60;99.90;;;;;;4970403;28;20080;-77
2021/12/11 02:29:06;;;;;;;2.23;1.60;;;2.50;99.90;;;;;;4970141;28;20023;-77
2021/12/11 02:31:55;;;;;;;2.83;1.50;;;2.50;99.90;;;;;;4952892;28;20058;-77
2021/12/11 02:34:33;;;;;;;3.97;1.50;;;2.40;99.90;;;;;;4970255;28;20035;-77
2021/12/11 02:37:08;;;;;;;2.93;1.53;;;2.40;99.90;;;;;;4970652;28;20031;-77
2021/12/11 02:39:40;;;;;;;4.13;1.60;;;2.40;99.90;;;;;;4973192;28;20136;-77
2021/12/11 02:42:34;;;;;;;2.30;1.43;;;2.40;99.90;;;;;;4973103;28;20529;-77
2021/12/11 02:45:13;;;;;;;1.83;1.40;;;2.40;99.90;;;;;;4972886;28;20041;-77
2021/12/11 02:47:47;;;;;;;2.20;1.87;;;2.50;99.90;;;;;;4955860;28;20027;-77
2021/12/11 02:50:13;;;;;;;4.85;1.92;;;2.50;99.90;;;;;;4972224;28;20038;-77
2021/12/11 02:52:58;;;;;;;3.83;1.50;;;2.50;99.90;;;;;;4973384;28;20033;-77
2021/12/11 02:55:41;;;;;;;3.85;1.48;;;2.50;99.90;;;;;;4976102;28;20031;-78
2021/12/11 02:58:19;;;;;;;2.63;1.60;;;2.60;99.90;;;;;;4976183;28;20037;-78
2021/12/11 03:00:56;;;;;;;5.43;1.83;;;2.60;99.90;;;;;;4959405;28;20038;-77
2021/12/11 03:03:34;;;;;;;2.00;1.53;;;2.60;99.90;;;;;;4976688;28;20058;-78
2021/12/11 03:06:10;;;;;;;4.60;2.17;;;2.50;99.90;;;;;;4976360;28;20106;-78
2021/12/11 03:08:36;;;;;;;;;;;2.50;99.90;;;;;;4976792;28;20126;-78
2021/12/11 03:11:06;;;;;;;3.43;1.57;;;2.50;99.90;;;;;;4977651;28;20051;-78
2021/12/11 03:13:34;;;;;;;3.60;1.60;;;2.50;99.90;;;;;;4978625;28;20118;-78
2021/12/11 03:16:01;;;;;;;2.10;1.43;;;2.60;99.90;;;;;;4978751;28;20542;-78
2021/12/11 03:18:27;;;;;;;2.87;1.63;;;2.60;99.90;;;;;;4986625;28;20027;-78
2021/12/11 03:20:53;;;;;;;3.53;1.83;;;2.60;99.90;;;;;;4982513;28;20061;-78
2021/12/11 03:23:19;;;;;;;2.97;1.80;;;2.70;99.90;;;;;;4982042;28;20046;-77
2021/12/11 03:25:45;;;;;;;3.27;2.07;;;2.70;99.90;;;;;;4982741;28;20027;-78
2021/12/11 03:28:13;;;;;;;2.80;1.80;;;2.60;99.90;;;;;;4983519;28;20027;-78
2021/12/11 03:30:50;;;;;;;2.87;1.53;;;2.70;99.90;;;;;;4965758;28;20027;-78
2021/12/11 03:33:18;;;;;;;1.97;1.67;;;2.60;99.90;;;;;;4983225;28;20022;-78
2021/12/11 03:35:44;;;;;;;3.80;1.63;;;2.60;99.90;;;;;;4983954;28;20054;-78
2021/12/11 03:38:12;;;;;;;3.37;1.80;;;2.60;99.90;;;;;;4983991;28;20027;-78
2021/12/11 03:40:38;;;;;;;3.63;1.50;;;2.50;99.90;;;;;;4985348;28;20137;-77
2021/12/11 03:43:12;;;;;;;3.03;1.60;;;2.60;99.90;;;;;;4984931;28;20023;-78
2021/12/11 03:45:41;;;;;;;3.00;2.00;;;2.50;99.90;;;;;;4985348;28;20023;-78
2021/12/11 03:48:21;;;;;;;5.97;2.17;;;2.50;99.90;;;;;;4986477;28;20094;-78
2021/12/11 03:50:47;;;;;;;3.77;1.67;;;2.40;99.90;;;;;;4982682;28;20035;-77
2021/12/11 03:53:15;;;;;;;3.50;1.73;;;2.40;99.90;;;;;;4950996;29;20379;-78
2021/12/11 03:55:48;;;;;;;3.80;1.97;;;2.30;99.90;;;;;;4953111;29;20028;-77
2021/12/11 03:58:14;;;;;;;2.37;1.73;;;2.30;99.90;;;;;;4967387;28;20049;-78
2021/12/11 04:00:48;;;;;;;3.07;2.07;;;2.30;99.90;;;;;;4972120;28;20019;-77
2021/12/11 04:03:16;;;;;;;3.20;2.07;;;2.40;99.90;;;;;;4972472;28;20026;-77
2021/12/11 04:05:43;;;;;;;5.50;1.90;;;2.40;99.90;;;;;;4972544;28;20589;-77
2021/12/11 04:08:13;;;;;;;4.40;2.10;;;2.30;99.90;;;;;;4972181;28;20073;-77
2021/12/11 04:10:39;;;;;;;6.77;2.30;;;2.30;99.90;;;;;;4972351;28;20039;-75
2021/12/11 04:13:10;;;;;;;6.63;2.47;;;2.40;99.90;;;;;;4955356;28;20345;-75
2021/12/11 04:15:40;;;;;;;3.27;1.77;;;2.30;99.90;;;;;;4973053;28;20084;-75
2021/12/11 04:18:06;;;;;;;5.00;2.30;;;2.30;99.90;;;;;;4973137;28;20031;-75
2021/12/11 04:20:36;;;;;;;3.00;1.90;;;2.30;99.90;;;;;;4972939;28;20027;-75
2021/12/11 04:23:03;;;;;;;3.40;2.20;;;2.20;99.90;;;;;;4972626;28;20053;-75
2021/12/11 04:25:29;;;;;;;3.07;2.07;;;2.20;99.90;;;;;;4972728;28;20463;-75
2021/12/11 04:27:55;;;;;;;3.60;2.20;;;2.20;99.90;;;;;;4955602;28;20042;-75
2021/12/11 04:30:23;;;;;;;5.13;2.30;;;2.10;99.90;;;;;;4955540;28;20431;-75
2021/12/11 04:32:50;;;;;;;4.70;2.40;;;2.10;99.90;;;;;;4972775;28;20031;-75
2021/12/11 04:35:17;;;;;;;4.23;2.43;;;2.10;99.90;;;;;;4972618;28;20030;-75
2021/12/11 04:37:43;;;;;;;5.63;2.10;;;2.00;99.90;;;;;;4972912;28;20113;-75
2021/12/11 04:40:14;;;;;;;9.17;2.20;;;2.00;99.90;;;;;;4973125;28;20034;-75
2021/12/11 04:42:55;;;;;;;3.87;2.17;;;1.90;99.90;;;;;;4972725;28;20356;-75
2021/12/11 04:45:52;;;;;;;6.90;2.40;;;2.00;99.90;;;;;;4972439;28;20030;-75
2021/12/11 04:48:44;;;;;;;4.43;2.37;;;1.90;99.90;;;;;;4954893;28;20337;-75
2021/12/11 04:51:26;;;;;;;4.67;2.20;;;1.80;99.90;;;;;;4972366;28;20416;-75
2021/12/11 04:54:08;;;;;;;5.67;2.20;;;1.90;99.90;;;;;;4972382;28;20027;-75
2021/12/11 04:57:09;;;;;;;3.80;2.10;;;1.80;99.90;;;;;;4972414;28;20049;-75
2021/12/11 04:59:46;;;;;;;3.60;2.03;;;1.80;99.90;;;;;;4971609;28;20027;-75
2021/12/11 05:10:15;;;;;;;3.13;2.37;;;1.80;99.90;;;;;;4972170;28;20049;-75
2021/12/11 05:12:42;;;;;;;3.50;2.10;;;1.80;99.90;;;;;;4954933;28;20046;-75
2021/12/11 05:15:24;;;;;;;4.27;2.23;;;1.80;99.90;;;;;;4971989;28;20023;-75
2021/12/11 05:17:50;;;;;;;3.53;2.10;;;1.70;99.90;;;;;;4972141;28;20430;-75
2021/12/11 05:20:21;;;;;;;4.57;2.17;;;1.70;99.90;;;;;;4972281;28;20027;-75
2021/12/11 05:22:47;;;;;;;5.13;2.17;;;1.70;99.90;;;;;;4972124;28;20023;-75
2021/12/11 05:25:14;;;;;;;4.27;2.00;;;1.70;99.90;;;;;;4954482;28;20302;-75
2021/12/11 05:27:41;;;;;;;3.83;2.17;;;1.70;99.90;;;;;;4954423;28;20023;-75
2021/12/11 05:30:13;;;;;;;5.80;2.03;;;1.60;99.90;;;;;;4971787;28;20023;-75
2021/12/11 05:32:39;;;;;;;5.40;2.43;;;1.50;99.90;;;;;;4972017;28;20467;-75
2021/12/11 05:35:06;;;;;;;3.17;2.10;;;1.50;99.90;;;;;;4971849;28;20069;-75
2021/12/11 05:37:33;;;;;;;4.63;1.90;;;1.60;99.90;;;;;;4972090;28;20050;-75
2021/12/11 05:39:58;;;;;;;3.33;1.80;;;1.50;99.90;;;;;;4971712;28;20525;-75
2021/12/11 05:42:24;;;;;;;3.67;2.07;;;1.60;99.90;;;;;;4971602;28;20090;-75
2021/12/11 05:44:50;;;;;;;6.33;2.47;;;1.70;99.90;;;;;;4971960;28;20479;-75
2021/12/11 05:47:16;;;;;;;3.23;1.73;;;1.60;99.90;;;;;;4954391;28;20023;-75
2021/12/11 05:49:44;;;;;;;3.73;2.30;;;1.70;99.90;;;;;;4971509;28;20105;-75
2021/12/11 05:52:12;;;;;;;4.87;2.27;;;1.70;99.90;;;;;;4971624;28;20159;-75
2021/12/11 05:54:40;;;;;;;3.50;2.00;;;1.60;99.90;;;;;;4971297;28;20101;-75
2021/12/11 05:57:10;;;;;;;2.87;1.90;;;1.70;99.90;;;;;;4971376;28;20026;-75
2021/12/11 05:59:37;;;;;;;3.20;2.20;;;1.70;99.90;;;;;;4954054;28;20152;-75
2021/12/11 06:02:19;;;;;;;4.23;2.23;;;1.70;99.90;;;;;;4971627;28;20472;-75
2021/12/11 06:04:48;;;;;;;2.57;1.80;;;1.70;99.90;;;;;;4971791;28;20153;-75
2021/12/11 06:07:15;;;;;;;5.00;1.83;;;1.70;99.90;;;;;;4971616;28;20026;-75
2021/12/11 06:09:45;;;;;;;2.53;1.87;;;1.70;99.90;;;;;;4971589;28;20023;-75
2021/12/11 06:12:15;;;;;;;4.53;1.73;;;1.80;99.90;;;;;;4970393;28;20037;-75
2021/12/11 06:14:43;;;;;;;4.17;1.90;;;1.80;99.90;;;;;;4971592;28;20027;-75
2021/12/11 06:17:11;;;;;;;7.20;2.13;;;1.90;99.90;;;;;;4971308;28;20084;-75
2021/12/11 06:19:37;;;;;;;3.17;1.60;;;1.90;99.90;;;;;;4971315;28;20073;-75
2021/12/11 06:22:04;;;;;;;8.23;2.57;;;2.00;99.90;;;;;;4971406;28;20058;-75
2021/12/11 06:24:30;;;;;;;5.13;2.27;;;2.00;99.90;;;;;;4971813;28;20029;-75
2021/12/11 06:26:58;;;;;;;3.20;1.80;;;1.90;99.90;;;;;;4971471;28;20535;-75
2021/12/11 06:29:25;;;;;;;4.00;2.40;;;2.00;99.90;;;;;;4971806;28;20459;-75
2021/12/11 06:31:51;;;;;;;2.50;2.00;;;2.00;99.90;;;;;;4971079;28;20476;-75
2021/12/11 06:34:17;;;;;;;2.97;2.20;;;2.00;99.90;;;;;;4971598;28;20035;-75
2021/12/11 06:36:45;;;;;;;3.50;1.83;;;2.00;99.90;;;;;;4970935;28;20049;-75
2021/12/11 06:39:16;;;;;;;3.33;2.10;;;2.00;99.90;;;;;;4970952;28;20094;-75
2021/12/11 06:41:46;;;;;;;5.43;2.00;;;2.00;99.90;;;;;;4971762;28;20046;-75
2021/12/11 06:44:11;;;;;;;3.40;1.90;;;2.10;99.90;;;;;;4971166;28;20471;-75
2021/12/11 06:46:39;;;;;;;4.90;2.00;;;2.10;99.90;;;;;;4970945;28;20067;-75
2021/12/11 06:49:06;;;;;;;2.77;1.60;;;2.00;99.90;;;;;;4971391;28;20102;-75
2021/12/11 06:51:32;;;;;;;5.57;2.17;;;2.10;99.90;;;;;;4971100;28;20027;-75
2021/12/11 06:54:02;;;;;;;6.60;2.33;;;2.20;99.90;;;;;;4971146;28;20027;-75
2021/12/11 06:56:28;;;;;;;4.77;2.10;;;2.10;99.90;;;;;;4970876;28;20031;-75
2021/12/11 06:58:55;;;;;;;6.67;2.10;;;2.10;99.90;;;;;;4970866;28;20031;-75
2021/12/11 07:01:23;;;;;;;3.93;1.87;;;2.10;99.90;;;;;;4970896;28;20022;-75
2021/12/11 07:03:50;;;;;;;3.03;2.03;;;2.10;99.90;;;;;;4971180;28;20023;-75
2021/12/11 07:06:16;;;;;;;5.00;2.00;;;2.10;99.90;;;;;;4971324;28;20026;-75
2021/12/11 07:08:42;;;;;;;3.50;1.93;;;2.00;99.90;;;;;;4970673;28;20026;-75
2021/12/11 07:11:11;;;;;;;6.60;2.00;;;2.00;99.90;;;;;;4953216;28;20031;-75
2021/12/11 07:13:37;;;;;;;3.33;2.00;;;2.00;99.90;;;;;;4970514;28;20046;-75
2021/12/11 07:16:03;;;;;;;6.70;2.40;;;2.10;99.90;;;;;;4953085;28;20035;-75
2021/12/11 07:18:28;;;;;;;5.07;2.07;;;2.10;99.90;;;;;;4970827;28;20034;-75
2021/12/11 07:20:56;;;;;;;3.67;2.00;;;2.10;99.90;;;;;;4970523;28;20525;-75
2021/12/11 07:23:21;;;;;;;3.50;2.00;;;2.10;99.90;;;;;;4953146;28;20059;-75
2021/12/11 07:25:56;;;;;;;5.50;1.90;;;2.10;99.90;;;;;;4973622;28;20062;-75
2021/12/11 07:28:21;;;;;;;4.17;2.00;;;2.20;99.90;;;;;;4973858;28;20050;-75
2021/12/11 07:30:50;;;;;;;4.40;1.97;;;2.10;99.90;;;;;;4956074;28;20066;-75
2021/12/11 07:33:17;;;;;;;4.30;1.87;;;2.10;99.90;;;;;;4973566;28;20035;-75
2021/12/11 07:35:44;;;;;;;4.40;1.80;;;2.10;99.90;;;;;;4973413;28;20031;-75
2021/12/11 07:38:10;;;;;;;3.17;1.90;;;2.20;99.90;;;;;;4973440;28;20026;-75
2021/12/11 07:40:54;;;;;;;2.90;1.53;;;2.30;99.90;;;;;;4973643;28;20053;-75
2021/12/11 07:43:23;;;;;;;2.00;1.30;;;2.20;99.90;;;;;;4973733;28;20031;-74
2021/12/11 07:45:49;;;;;;;2.27;1.20;;;2.00;99.90;;;;;;4974020;28;20038;-74
2021/12/11 07:48:15;;;;;;;1.43;1.20;;;1.90;99.90;;;;;;4973948;28;20035;-74
2021/12/11 07:50:42;;;;;;;2.33;1.30;;;1.70;99.90;;;;;;4973691;28;20080;-74
2021/12/11 07:53:08;;;;;;;2.13;1.40;;;1.70;99.90;;;;;;4973572;28;20031;-74
2021/12/11 07:55:35;;;;;;;2.40;1.40;;;1.60;99.90;;;;;;4973557;28;20034;-74
2021/12/11 07:58:02;;;;;;;2.20;1.53;;;1.60;99.90;;;;;;4973670;28;20030;-74
2021/12/11 08:00:29;;;;;;;3.77;2.00;;;1.50;99.90;;;;;;4973509;28;20061;-74
2021/12/11 08:02:55;;;;;;;4.27;1.70;;;1.50;99.90;;;;;;4955873;28;20030;-74
2021/12/11 08:05:22;;;;;;;2.97;2.13;;;1.50;99.90;;;;;;4973099;28;20027;-74
2021/12/11 08:07:48;;;;;;;1.87;1.40;;;1.50;99.90;;;;;;4973114;28;20026;-74
2021/12/11 08:10:18;;;;;;;2.10;1.60;;;1.40;99.90;;;;;;4973068;28;20448;-74
2021/12/11 08:12:45;;;;;;;3.23;2.27;;;1.50;99.90;;;;;;4973048;28;20042;-74
2021/12/11 08:15:13;;;;;;;2.63;1.83;;;1.50;99.90;;;;;;4972983;28;20027;-74
2021/12/11 08:17:40;;;;;;;4.80;2.53;;;1.50;99.90;;;;;;4972961;28;20031;-74
2021/12/11 08:20:09;;;;;;;2.43;2.23;;;1.50;99.90;;;;;;4973189;28;20057;-74
2021/12/11 08:22:35;;;;;;;2.87;2.37;;;1.40;99.90;;;;;;4973328;28;20023;-74
2021/12/11 08:25:00;;;;;;;3.23;2.47;;;1.50;99.90;;;;;;4955594;28;20033;-74
2021/12/11 08:27:27;;;;;;;2.33;2.13;;;1.50;99.90;;;;;;4972837;28;20038;-74
2021/12/11 08:29:54;;;;;;;3.60;2.33;;;1.60;99.90;;;;;;4972972;28;20023;-74
2021/12/11 08:32:21;;;;;;;2.97;2.17;;;1.60;99.90;;;;;;4972676;28;20463;-75
2021/12/11 08:34:49;;;;;;;3.20;2.67;;;1.50;99.90;;;;;;4972158;28;20126;-74
2021/12/11 08:37:18;;;;;;;4.13;2.73;;;1.50;99.90;;;;;;4972721;28;20038;-75
2021/12/11 08:39:45;;;;;;;2.87;2.57;;;1.50;99.90;;;;;;4972919;28;20030;-75
2021/12/11 08:42:15;;;;;;;2.97;2.63;;;1.50;99.90;;;;;;4955444;28;20026;-74
2021/12/11 08:44:49;;;;;;;3.13;2.67;;;1.60;99.90;;;;;;4972659;28;20052;-75
2021/12/11 08:47:17;;;;;;;3.78;2.67;;;1.50;99.90;;;;;;4972602;28;20102;-75
2021/12/11 08:49:42;;;;;;;2.90;2.60;;;1.50;99.90;;;;;;4972578;28;20383;-75
2021/12/11 08:52:10;;;;;;;3.10;2.80;;;1.50;99.90;;;;;;4972498;28;20031;-75
2021/12/11 08:54:38;;;;;;;3.53;2.80;;;1.60;99.90;;;;;;4972150;28;20062;-75
2021/12/11 08:57:08;;;;;;;3.27;2.80;;;1.60;99.90;;;;;;4972036;28;20057;-75
2021/12/11 08:59:37;;;;;;;3.20;2.87;;;1.60;99.90;;;;;;4972106;28;20019;-75
2021/12/11 09:02:06;;;;;;;3.60;2.97;;;1.70;99.90;;;;;;4972380;28;20376;-75
2021/12/11 09:04:44;;;;;;;4.53;3.53;;;1.60;99.90;;;;;;4971995;28;20030;-75
2021/12/11 09:07:12;;;;;;;5.00;3.20;;;1.70;99.90;;;;;;4971803;28;20379;-75
2021/12/11 09:09:54;;;;;;;3.67;2.90;;;1.80;99.90;;;;;;4971984;28;20110;-75
2021/12/11 09:12:41;;;;;;;3.67;2.90;;;1.80;99.90;;;;;;4971686;28;20046;-75
2021/12/11 09:15:41;;;;;;;3.73;3.10;;;1.80;99.90;;;;;;4971768;28;20046;-75
2021/12/11 09:18:56;;;;;;;3.93;3.33;;;1.70;99.90;;;;;;4972102;28;20051;-75
2021/12/11 09:21:32;;;;;;;3.70;3.30;;;1.80;99.90;;;;;;4958757;28;20043;-75
2021/12/11 09:24:24;;;;;;;6.20;3.53;;;1.80;99.90;;;;;;4971617;28;20046;-75
2021/12/11 09:27:04;;;;;;;4.37;3.50;;;1.90;99.90;;;;;;4954819;28;20026;-75
2021/12/11 09:29:36;;;;;;;4.90;3.10;;;1.90;99.90;;;;;;4971827;28;20476;-75
2021/12/11 09:32:14;;;;;;;3.43;3.13;;;1.90;99.90;;;;;;4954330;28;20099;-75
2021/12/11 09:34:49;;;;;;;3.40;3.00;;;1.90;99.90;;;;;;4971786;28;20021;-75
2021/12/11 09:37:15;;;;;;;8.90;3.73;;;1.90;99.90;;;;;;4971589;28;20027;-75
2021/12/11 09:39:44;;;;;;;3.97;3.57;;;1.90;99.90;;;;;;4971539;28;20074;-75
2021/12/11 09:42:09;;;;;;;5.40;3.60;;;1.90;99.90;;;;;;4971644;28;20031;-75
2021/12/11 09:44:46;;;;;;;4.67;4.13;;;1.90;99.90;;;;;;4954246;28;20140;-75
2021/12/11 09:47:18;;;;;;;4.50;3.90;;;1.80;99.90;;;;;;4970727;28;20109;-75
2021/12/11 09:49:53;;;;;;;5.43;4.07;;;2.00;99.90;;;;;;4953760;28;20027;-75
2021/12/11 09:52:25;;;;;;;4.70;3.78;;;1.90;99.90;;;;;;4975640;28;20037;-75
2021/12/11 09:55:01;;;;;;;4.23;3.73;;;1.90;99.90;;;;;;4980074;28;20030;-75
2021/12/11 09:57:34;;;;;;;6.07;4.13;;;1.90;99.90;;;;;;4980864;28;20091;-75
2021/12/11 10:00:02;;;;;;;4.33;3.77;;;1.90;99.90;;;;;;4989594;28;20029;-75
2021/12/11 10:02:31;;;;;;;4.43;3.77;;;2.00;99.90;;;;;;4983296;28;20092;-75
2021/12/11 10:05:00;;;;;;;4.77;4.27;;;2.10;99.90;;;;;;4989138;28;20041;-75
2021/12/11 10:07:37;;;;;;;3.87;3.37;;;2.10;99.90;;;;;;4963592;28;20338;-75
2021/12/11 10:10:09;;;;;;;7.13;4.00;;;2.10;99.90;;;;;;4969970;28;20050;-75
2021/12/11 10:12:37;;;;;;;4.60;4.00;;;2.20;99.90;;;;;;4971669;28;20046;-75
2021/12/11 10:15:13;;;;;;;5.47;3.80;;;2.20;99.90;;;;;;4986622;28;20470;-75
2021/12/11 10:17:45;;;;;;;4.30;3.80;;;2.30;99.90;;;;;;4964327;28;20046;-75
2021/12/11 10:20:22;;;;;;;6.07;4.17;;;2.30;99.90;;;;;;4976026;28;20097;-75
2021/12/11 10:22:50;;;;;;;4.37;3.97;;;2.30;99.90;;;;;;4980384;28;20019;-76
2021/12/11 10:25:19;;;;;;;5.03;4.27;;;2.40;99.90;;;;;;4981219;28;20033;-75
2021/12/11 10:27:46;;;;;;;4.47;3.93;;;2.30;99.90;;;;;;4958125;28;20031;-75
2021/12/11 10:30:18;;;;;;;4.33;3.80;;;2.40;99.90;;;;;;4977782;28;20015;-75
2021/12/11 10:32:44;;;;;;;4.67;3.83;;;2.30;99.90;;;;;;4964970;28;20372;-75
2021/12/11 10:35:16;;;;;;;3.80;3.40;;;2.40;99.90;;;;;;4975615;28;20027;-75
2021/12/11 10:37:42;;;;;;;4.00;3.60;;;2.40;99.90;;;;;;4976609;28;20031;-75
2021/12/11 10:40:14;;;;;;;4.53;3.77;;;2.40;99.90;;;;;;4982476;28;20022;-75
2021/12/11 10:42:41;;;;;;;4.20;3.27;;;2.50;99.90;;;;;;4979739;28;20045;-75
2021/12/11 10:45:09;;;;;;;5.40;3.77;;;2.50;99.90;;;;;;4955317;28;20085;-75
2021/12/11 10:47:41;;;;;;;4.70;3.73;;;2.50;99.90;;;;;;4973276;28;20026;-75
2021/12/11 10:50:39;;;;;;;6.83;3.80;;;2.50;99.90;;;;;;4976377;28;20019;-75
2021/12/11 10:53:11;;;;;;;3.77;3.10;;;2.50;99.90;;;;;;4960067;28;20323;-75
2021/12/11 10:55:38;;;;;;;5.53;3.20;;;2.40;99.90;;;;;;4957619;28;20030;-75
2021/12/11 10:58:15;;;;;;;5.57;3.50;;;2.40;99.90;;;;;;4975691;28;20023;-75
2021/12/11 11:01:00;;;;;;;5.50;3.67;;;2.30;99.90;;;;;;4989820;28;20466;-75
2021/12/11 11:03:30;;;;;;;3.83;3.42;;;2.30;99.90;;;;;;4975537;28;20031;-75
2021/12/11 11:05:57;;;;;;;4.20;3.43;;;2.30;99.90;;;;;;4968853;28;20037;-75
2021/12/11 11:08:23;;;;;;;8.77;3.60;;;2.20;99.90;;;;;;4982208;28;20413;-75
2021/12/11 11:10:55;;;;;;;4.63;3.70;;;2.10;99.90;;;;;;4962239;28;20113;-75
2021/12/11 11:13:22;;;;;;;6.80;3.67;;;2.20;99.90;;;;;;4984753;28;20062;-75
2021/12/11 11:15:52;;;;;;;4.23;3.60;;;2.10;99.90;;;;;;4978137;28;20425;-75
2021/12/11 11:18:21;;;;;;;4.40;3.43;;;2.10;99.90;;;;;;4986765;28;20043;-75
2021/12/11 11:21:13;;;;;;;3.90;3.37;;;2.20;99.90;;;;;;4983200;28;20057;-75
2021/12/11 11:23:43;;;;;;;3.83;3.43;;;2.20;99.90;;;;;;4978935;28;20122;-75
2021/12/11 11:26:13;;;;;;;5.00;3.57;;;2.20;99.90;;;;;;4975478;28;20043;-75
2021/12/11 11:28:39;;;;;;;5.23;3.53;;;2.20;99.90;;;;;;4979099;28;20040;-75
2021/12/11 11:31:13;;;;;;;4.43;3.60;;;2.30;99.90;;;;;;4990801;28;20106;-75
2021/12/11 11:33:40;;;;;;;5.53;3.90;;;2.30;99.90;;;;;;4974909;28;20105;-75
2021/12/11 11:36:12;;;;;;;5.37;3.67;;;2.40;99.90;;;;;;4978856;28;20046;-75
2021/12/11 11:38:41;;;;;;;4.80;3.83;;;2.40;99.90;;;;;;4973493;28;20023;-75
2021/12/11 11:41:18;;;;;;;6.33;4.23;;;2.50;99.90;;;;;;4973397;28;20027;-75
2021/12/11 11:43:45;;;;;;;6.03;4.23;;;2.50;99.90;;;;;;4972854;28;20041;-75
2021/12/11 11:46:12;;;;;;;5.10;4.10;;;2.50;99.90;;;;;;4973578;28;20025;-75
2021/12/11 11:48:42;;;;;;;5.70;4.60;;;2.50;99.90;;;;;;4972897;28;20027;-75
2021/12/11 11:51:17;;;;;;;4.70;3.93;;;2.50;99.90;;;;;;4972961;28;20352;-75
2021/12/11 11:53:43;;;;;;;5.20;3.80;;;2.50;99.90;;;;;;4973229;28;20076;-75
2021/12/11 11:56:13;;;;;;;4.57;4.03;;;2.60;99.90;;;;;;4955787;28;20038;-75
2021/12/11 11:58:39;;;;;;;5.57;4.17;;;2.60;99.90;;;;;;4973457;28;20027;-75
2021/12/11 12:01:32;;;;;;;6.33;4.37;;;2.50;99.90;;;;;;4973541;28;20367;-75
2021/12/11 12:04:00;;;;;;;5.80;4.40;;;2.50;99.90;;;;;;4973354;28;20367;-75
2021/12/11 12:06:31;;;;;;;5.50;4.23;;;2.50;99.90;;;;;;4973736;28;20333;-75
2021/12/11 12:08:59;;;;;;;4.80;3.90;;;2.50;99.90;;;;;;4972175;28;20160;-75
2021/12/11 12:11:31;;;;;;;4.50;3.80;;;2.50;99.90;;;;;;4955643;28;20026;-75
2021/12/11 12:13:57;;;;;;;4.50;3.60;;;2.50;99.90;;;;;;4972974;28;20046;-75
2021/12/11 12:16:24;;;;;;;4.60;4.10;;;2.50;99.90;;;;;;4973141;28;20575;-75
2021/12/11 12:18:49;;;;;;;5.23;3.60;;;2.60;99.90;;;;;;4973079;28;20100;-75
2021/12/11 12:21:17;;;;;;;4.67;3.77;;;2.50;99.90;;;;;;4955743;28;20069;-75
2021/12/11 12:23:44;;;;;;;4.30;3.73;;;2.50;99.90;;;;;;4955332;28;20450;-75
2021/12/11 12:26:18;;;;;;;4.43;3.40;;;2.50;99.90;;;;;;4973075;28;20038;-75
2021/12/11 12:28:44;;;;;;;4.87;3.80;;;2.60;99.90;;;;;;4972694;28;20053;-75
2021/12/11 12:31:15;;;;;;;5.60;3.40;;;2.60;99.90;;;;;;4972801;28;20037;-75
2021/12/11 12:33:43;;;;;;;4.07;3.67;;;2.60;99.90;;;;;;4972826;28;20023;-75
2021/12/11 12:36:09;;;;;;;6.10;3.73;;;2.50;99.90;;;;;;4956748;28;20081;-77
2021/12/11 12:38:36;;;;;;;4.30;3.50;;;2.50;99.90;;;;;;4981060;28;20101;-78
2021/12/11 12:41:16;;;;;;;3.63;3.00;;;2.50;99.90;;;;;;4976497;28;20050;-77
2021/12/11 12:46:18;;;;;;;4.63;3.77;;;2.50;99.90;;;;;;4976509;28;20372;-78
2021/12/11 12:48:44;;;;;;;4.37;3.77;;;2.50;99.90;;;;;;4976842;28;20035;-77
2021/12/11 12:51:13;;;;;;;4.60;3.73;;;2.40;99.90;;;;;;4962012;28;20509;-77
2021/12/11 12:53:44;;;;;;;4.63;4.00;;;2.30;99.90;;;;;;4963495;28;20031;-77
2021/12/11 12:56:14;;;;;;;4.83;4.10;;;2.30;99.90;;;;;;4978198;28;20386;-77
2021/12/11 12:58:43;;;;;;;5.17;4.10;;;2.40;99.90;;;;;;4976380;28;20027;-77
2021/12/11 13:01:21;;;;;;;4.90;4.27;;;2.30;99.90;;;;;;4975280;28;20031;-77
2021/12/11 13:03:47;;;;;;;5.77;4.60;;;2.40;99.90;;;;;;4974264;28;20045;-77
2021/12/11 13:06:20;;;;;;;5.27;4.60;;;2.40;99.90;;;;;;4973569;28;20062;-77
2021/12/11 13:08:51;;;;;;;5.17;4.23;;;2.30;99.90;;;;;;4973381;28;20106;-77
2021/12/11 13:11:30;;;;;;;5.33;4.40;;;2.30;99.90;;;;;;4973477;28;20089;-77
2021/12/11 13:13:57;;;;;;;5.20;4.70;;;2.30;99.90;;;;;;4972661;28;20125;-77
2021/12/11 13:16:29;;;;;;;5.97;5.10;;;2.20;99.90;;;;;;4955109;28;20043;-77
2021/12/11 13:18:59;;;;;;;6.67;5.33;;;2.20;99.90;;;;;;4972695;28;20080;-77
2021/12/11 13:21:30;;;;;;;7.33;5.87;;;2.20;99.90;;;;;;4972600;28;20022;-77
2021/12/11 13:23:58;;;;;;;8.73;6.10;;;2.20;99.90;;;;;;4972039;28;20031;-77
2021/12/11 13:26:26;;;;;;;10.23;6.90;;;2.10;99.90;;;;;;4972032;28;20546;-77
2021/12/11 13:29:05;;;;;;;9.10;6.30;;;2.20;99.90;;;;;;4955298;28;20080;-77
2021/12/11 13:31:51;;;;;;;7.67;5.90;;;2.20;99.90;;;;;;4972340;28;20057;-77
2021/12/11 13:34:17;;;;;;;8.60;6.17;;;2.30;99.90;;;;;;4972557;28;20409;-77
2021/12/11 13:36:45;;;;;;;8.43;6.73;;;2.40;99.90;;;;;;4972280;28;20045;-77